Billings, MT

11:10 AM MDT on May 28, 2015 (GMT -0600)
Downtown Billings | | Change Station
CLOSE
Current Station
Personal Weather Station
Location: Billings, MT
Elevation: 3127 ft
Nearby Weather Stations

Elev 3127 ft 45.78 °N, 108.50 °W | Updated 43 minutes ago

Mostly Cloudy
Mostly Cloudy
63.4 °F
Feels Like 63.4 °F
N
1.1
Wind Variable Wind from SW
Gusts 4.5 mph

Today
High -- | Low -- °F
--% Chance of Precip.
Yesterday
High -- | Low -- °F
Precip. -- in
5:30 AM 8:52 PM
Waxing Gibbous, 77% visible
Pressure 29.97 in
Visibility 10.0 miles
Clouds Few 4400 ft
Scattered Clouds 11000 ft
Mostly Cloudy 20000 ft
Dew Point 51 °F
Humidity 64%
Rainfall -999.00 in
Snow Depth Not available.
UV 5 out of 12
Pollen 6.60 out of 12
Air Quality Not available.
Flu Activity Sporadic
METAR KBIL 281653Z 31005KT 10SM FEW044CB SCT110 BKN200 19/09 A3003 RMK AO2 SLP149 CB SW MOV NE T01890089

More Conditions Fewer Conditions

Pressure 29.97 in
Visibility 10.0 miles
Clouds Few 4400 ft
Scattered Clouds 11000 ft
Mostly Cloudy 20000 ft
Dew Point 51 °F
Humidity 64%
Rainfall -999.00 in
Snow Depth Not available.
UV 5 out of 12
Pollen 6.60 out of 12
Air Quality Not available.
Flu Activity Sporadic
METAR KBIL 281653Z 31005KT 10SM FEW044CB SCT110 BKN200 19/09 A3003 RMK AO2 SLP149 CB SW MOV NE T01890089

More Conditions Fewer Conditions

10-Day Weather Forecast

Almanac

Astronomy

May. 28, 2015 Rise Set
Actual Time
Civil Twilight
Nautical Twilight
Astronomical Twilight
Moon
Length of Visible Light
Length of Day
Tomorrow will be .
, % of the Moon is Illuminated

Today's Extremes

State Highs State Lows

Community

WunderPhotos

Upload Photos

1,825,005 photos uploaded!

WunderBlogs® & News

Nearby

Air Quality

  Air Quality AQ Index Pollutant
Not available.

Snow Depth

Station Depth Elevation

Earthquake Activity

City Distance Mag. Time & Date
Minimum magnitude displayed is 2.5.

Coastal Water Temperatures

Place Temperature

Stations

Nearby Weather Stations

Station Location Temp. Windchill Dew Point Humidity Wind Precip. Elev Updated Type